sensor_id;sensor_type;location;lat;lon;timestamp;temperature;humidity
22065;DHT22;11197;53.110;8.468;2023-03-01T00:01:31;1.30;99.90
22065;DHT22;11197;53.110;8.468;2023-03-01T00:03:58;1.30;99.90
22065;DHT22;11197;53.110;8.468;2023-03-01T00:06:26;1.30;99.90
22065;DHT22;11197;53.110;8.468;2023-03-01T00:08:52;1.30;99.90
22065;DHT22;11197;53.110;8.468;2023-03-01T00:11:19;1.20;99.90
22065;DHT22;11197;53.110;8.468;2023-03-01T00:13:47;1.20;99.90
22065;DHT22;11197;53.110;8.468;2023-03-01T00:16:23;1.20;99.90
22065;DHT22;11197;53.110;8.468;2023-03-01T00:18:49;1.10;99.90
22065;DHT22;11197;53.110;8.468;2023-03-01T00:21:16;1.10;99.90
22065;DHT22;11197;53.110;8.468;2023-03-01T00:23:42;1.10;99.90
22065;DHT22;11197;53.110;8.468;2023-03-01T00:26:11;1.00;99.90
22065;DHT22;11197;53.110;8.468;2023-03-01T00:28:40;1.00;99.90
22065;DHT22;11197;53.110;8.468;2023-03-01T00:31:15;1.00;99.90
22065;DHT22;11197;53.110;8.468;2023-03-01T00:33:42;1.00;99.90
22065;DHT22;11197;53.110;8.468;2023-03-01T00:36:09;1.00;99.90
22065;DHT22;11197;53.110;8.468;2023-03-01T00:38:37;0.90;99.90
22065;DHT22;11197;53.110;8.468;2023-03-01T00:41:08;0.90;99.90
22065;DHT22;11197;53.110;8.468;2023-03-01T00:43:35;0.90;99.90
22065;DHT22;11197;53.110;8.468;2023-03-01T00:46:07;0.90;99.90
22065;DHT22;11197;53.110;8.468;2023-03-01T00:48:34;0.90;99.90
22065;DHT22;11197;53.110;8.468;2023-03-01T00:53:40;0.80;99.90
22065;DHT22;11197;53.110;8.468;2023-03-01T00:56:08;0.90;99.90
22065;DHT22;11197;53.110;8.468;2023-03-01T00:58:34;0.80;99.90
22065;DHT22;11197;53.110;8.468;2023-03-01T01:01:06;0.70;99.90
22065;DHT22;11197;53.110;8.468;2023-03-01T01:03:32;0.70;99.90
22065;DHT22;11197;53.110;8.468;2023-03-01T01:05:58;0.70;99.90
22065;DHT22;11197;53.110;8.468;2023-03-01T01:08:24;0.70;99.90
22065;DHT22;11197;53.110;8.468;2023-03-01T01:10:50;0.60;99.90
22065;DHT22;11197;53.110;8.468;2023-03-01T01:13:16;0.60;99.90
22065;DHT22;11197;53.110;8.468;2023-03-01T01:15:42;0.60;99.90
22065;DHT22;11197;53.110;8.468;2023-03-01T01:18:08;0.60;99.90
22065;DHT22;11197;53.110;8.468;2023-03-01T01:20:35;0.60;99.90
22065;DHT22;11197;53.110;8.468;2023-03-01T01:23:01;0.60;99.90
22065;DHT22;11197;53.110;8.468;2023-03-01T01:25:26;0.60;99.90
22065;DHT22;11197;53.110;8.468;2023-03-01T01:27:52;0.50;99.90
22065;DHT22;11197;53.110;8.468;2023-03-01T01:30:18;0.50;99.90
22065;DHT22;11197;53.110;8.468;2023-03-01T01:32:44;0.50;99.90
22065;DHT22;11197;53.110;8.468;2023-03-01T01:35:10;0.40;99.90
22065;DHT22;11197;53.110;8.468;2023-03-01T01:37:36;0.40;99.90
22065;DHT22;11197;53.110;8.468;2023-03-01T01:40:02;0.40;99.90
22065;DHT22;11197;53.110;8.468;2023-03-01T01:42:31;0.40;99.90
22065;DHT22;11197;53.110;8.468;2023-03-01T01:45:31;0.40;99.90
22065;DHT22;11197;53.110;8.468;2023-03-01T01:48:02;0.40;99.90
22065;DHT22;11197;53.110;8.468;2023-03-01T01:50:29;0.40;99.90
22065;DHT22;11197;53.110;8.468;2023-03-01T01:53:06;0.30;99.90
22065;DHT22;11197;53.110;8.468;2023-03-01T01:55:36;0.30;99.90
22065;DHT22;11197;53.110;8.468;2023-03-01T01:58:05;0.30;99.90
22065;DHT22;11197;53.110;8.468;2023-03-01T02:00:33;0.20;99.90
22065;DHT22;11197;53.110;8.468;2023-03-01T02:03:22;0.20;99.90
22065;DHT22;11197;53.110;8.468;2023-03-01T02:08:18;0.20;99.90
22065;DHT22;11197;53.110;8.468;2023-03-01T02:10:45;0.10;99.90
22065;DHT22;11197;53.110;8.468;2023-03-01T02:13:12;0.10;99.90
22065;DHT22;11197;53.110;8.468;2023-03-01T02:15:39;0.10;99.90
22065;DHT22;11197;53.110;8.468;2023-03-01T02:18:07;0.10;99.90
22065;DHT22;11197;53.110;8.468;2023-03-01T02:20:39;0.10;99.90
22065;DHT22;11197;53.110;8.468;2023-03-01T02:23:09;0.10;99.90
22065;DHT22;11197;53.110;8.468;2023-03-01T02:25:47;0.00;99.90
22065;DHT22;11197;53.110;8.468;2023-03-01T02:30:48;0.00;99.90
22065;DHT22;11197;53.110;8.468;2023-03-01T02:33:35;0.00;99.90
22065;DHT22;11197;53.110;8.468;2023-03-01T02:36:17;0.00;99.90
22065;DHT22;11197;53.110;8.468;2023-03-01T02:38:45;0.00;99.90
22065;DHT22;11197;53.110;8.468;2023-03-01T02:41:17;-0.10;99.90
22065;DHT22;11197;53.110;8.468;2023-03-01T02:43:44;-0.10;99.90
22065;DHT22;11197;53.110;8.468;2023-03-01T02:46:23;-0.10;99.90
22065;DHT22;11197;53.110;8.468;2023-03-01T02:48:57;-0.10;99.90
22065;DHT22;11197;53.110;8.468;2023-03-01T02:56:44;-0.20;99.90
22065;DHT22;11197;53.110;8.468;2023-03-01T02:59:17;-0.20;99.90
22065;DHT22;11197;53.110;8.468;2023-03-01T03:01:44;-0.20;99.90
22065;DHT22;11197;53.110;8.468;2023-03-01T03:04:14;-0.30;99.90
22065;DHT22;11197;53.110;8.468;2023-03-01T03:06:45;-0.30;99.90
22065;DHT22;11197;53.110;8.468;2023-03-01T03:09:12;-0.30;99.90
22065;DHT22;11197;53.110;8.468;2023-03-01T03:11:38;-0.30;99.90
22065;DHT22;11197;53.110;8.468;2023-03-01T03:14:10;-0.30;99.90
22065;DHT22;11197;53.110;8.468;2023-03-01T03:16:46;-0.40;99.90
22065;DHT22;11197;53.110;8.468;2023-03-01T03:19:13;-0.40;99.90
22065;DHT22;11197;53.110;8.468;2023-03-01T03:21:39;-0.40;99.90
22065;DHT22;11197;53.110;8.468;2023-03-01T03:24:05;-0.40;99.90
22065;DHT22;11197;53.110;8.468;2023-03-01T03:26:32;-0.40;99.90
22065;DHT22;11197;53.110;8.468;2023-03-01T03:28:58;-0.40;99.90
22065;DHT22;11197;53.110;8.468;2023-03-01T03:31:24;-0.40;99.90
22065;DHT22;11197;53.110;8.468;2023-03-01T03:33:55;-0.40;99.90
22065;DHT22;11197;53.110;8.468;2023-03-01T03:36:30;-0.50;99.90
22065;DHT22;11197;53.110;8.468;2023-03-01T03:39:04;-0.50;99.90
22065;DHT22;11197;53.110;8.468;2023-03-01T03:41:31;-0.50;99.90
22065;DHT22;11197;53.110;8.468;2023-03-01T03:43:59;-0.50;99.90
22065;DHT22;11197;53.110;8.468;2023-03-01T03:46:25;-0.60;99.90
22065;DHT22;11197;53.110;8.468;2023-03-01T03:48:51;-0.60;99.90
22065;DHT22;11197;53.110;8.468;2023-03-01T03:51:17;-0.60;99.90
22065;DHT22;11197;53.110;8.468;2023-03-01T03:53:45;-0.60;99.90
22065;DHT22;11197;53.110;8.468;2023-03-01T03:56:11;-0.60;99.90
22065;DHT22;11197;53.110;8.468;2023-03-01T03:58:37;-0.70;99.90
22065;DHT22;11197;53.110;8.468;2023-03-01T04:01:04;-0.70;99.90
22065;DHT22;11197;53.110;8.468;2023-03-01T04:03:31;-0.70;99.90
22065;DHT22;11197;53.110;8.468;2023-03-01T04:05:59;-0.70;99.90
22065;DHT22;11197;53.110;8.468;2023-03-01T04:08:25;-0.70;99.90
22065;DHT22;11197;53.110;8.468;2023-03-01T04:10:55;-0.70;99.90
22065;DHT22;11197;53.110;8.468;2023-03-01T04:13:22;-0.70;99.90
22065;DHT22;11197;53.110;8.468;2023-03-01T04:15:52;-0.70;99.90
22065;DHT22;11197;53.110;8.468;2023-03-01T04:18:19;-0.80;99.90
22065;DHT22;11197;53.110;8.468;2023-03-01T04:20:46;-0.80;99.90
22065;DHT22;11197;53.110;8.468;2023-03-01T04:23:16;-0.80;99.90
22065;DHT22;11197;53.110;8.468;2023-03-01T04:28:28;-0.80;99.90
22065;DHT22;11197;53.110;8.468;2023-03-01T04:31:04;-0.80;99.90
22065;DHT22;11197;53.110;8.468;2023-03-01T04:33:40;-0.90;99.90
22065;DHT22;11197;53.110;8.468;2023-03-01T04:36:07;-0.90;99.90
22065;DHT22;11197;53.110;8.468;2023-03-01T04:38:35;-0.90;99.90
22065;DHT22;11197;53.110;8.468;2023-03-01T04:41:07;-0.90;99.90
22065;DHT22;11197;53.110;8.468;2023-03-01T04:43:33;-0.90;99.90
22065;DHT22;11197;53.110;8.468;2023-03-01T04:46:01;-0.90;99.90
22065;DHT22;11197;53.110;8.468;2023-03-01T04:48:29;-1.00;99.90
22065;DHT22;11197;53.110;8.468;2023-03-01T04:50:55;-1.00;99.90
22065;DHT22;11197;53.110;8.468;2023-03-01T04:53:20;-1.00;99.90
22065;DHT22;11197;53.110;8.468;2023-03-01T04:55:46;-1.00;99.90
22065;DHT22;11197;53.110;8.468;2023-03-01T04:58:12;-1.00;99.90
22065;DHT22;11197;53.110;8.468;2023-03-01T05:00:38;-1.00;99.90
22065;DHT22;11197;53.110;8.468;2023-03-01T05:03:04;-1.00;99.90
22065;DHT22;11197;53.110;8.468;2023-03-01T05:05:33;-1.10;99.90
22065;DHT22;11197;53.110;8.468;2023-03-01T05:08:01;-1.10;99.90
22065;DHT22;11197;53.110;8.468;2023-03-01T05:10:29;-1.10;99.90
22065;DHT22;11197;53.110;8.468;2023-03-01T05:13:00;-1.10;99.90
22065;DHT22;11197;53.110;8.468;2023-03-01T05:15:27;-1.10;99.90
22065;DHT22;11197;53.110;8.468;2023-03-01T05:17:55;-1.10;99.90
22065;DHT22;11197;53.110;8.468;2023-03-01T05:20:28;-1.20;99.90
22065;DHT22;11197;53.110;8.468;2023-03-01T05:22:58;-1.10;99.90
22065;DHT22;11197;53.110;8.468;2023-03-01T05:25:25;-1.10;99.90
22065;DHT22;11197;53.110;8.468;2023-03-01T05:27:51;-1.20;99.90
22065;DHT22;11197;53.110;8.468;2023-03-01T05:30:17;-1.20;99.90
22065;DHT22;11197;53.110;8.468;2023-03-01T05:32:46;-1.20;99.90
22065;DHT22;11197;53.110;8.468;2023-03-01T05:35:13;-1.20;99.90
22065;DHT22;11197;53.110;8.468;2023-03-01T05:37:44;-1.20;99.90
22065;DHT22;11197;53.110;8.468;2023-03-01T05:40:15;-1.20;99.90
22065;DHT22;11197;53.110;8.468;2023-03-01T05:42:46;-1.20;99.90
22065;DHT22;11197;53.110;8.468;2023-03-01T05:45:13;-1.30;99.90
22065;DHT22;11197;53.110;8.468;2023-03-01T05:47:41;-1.30;99.90
22065;DHT22;11197;53.110;8.468;2023-03-01T05:50:29;-1.30;99.90
22065;DHT22;11197;53.110;8.468;2023-03-01T05:55:23;-1.30;99.90
22065;DHT22;11197;53.110;8.468;2023-03-01T05:57:49;-1.30;99.90
22065;DHT22;11197;53.110;8.468;2023-03-01T06:00:20;-1.30;99.90
22065;DHT22;11197;53.110;8.468;2023-03-01T06:02:49;-1.40;99.90
22065;DHT22;11197;53.110;8.468;2023-03-01T06:05:15;-1.40;99.90
22065;DHT22;11197;53.110;8.468;2023-03-01T06:07:41;-1.40;99.90
22065;DHT22;11197;53.110;8.468;2023-03-01T06:10:09;-1.40;99.90
22065;DHT22;11197;53.110;8.468;2023-03-01T06:12:36;-1.40;99.90
22065;DHT22;11197;53.110;8.468;2023-03-01T06:15:04;-1.50;99.90
22065;DHT22;11197;53.110;8.468;2023-03-01T06:17:32;-1.50;99.90
22065;DHT22;11197;53.110;8.468;2023-03-01T06:19:58;-1.50;99.90
22065;DHT22;11197;53.110;8.468;2023-03-01T06:22:24;-1.50;99.90
22065;DHT22;11197;53.110;8.468;2023-03-01T06:24:50;-1.50;99.90
22065;DHT22;11197;53.110;8.468;2023-03-01T06:27:16;-1.50;99.90
22065;DHT22;11197;53.110;8.468;2023-03-01T06:29:42;-1.50;99.90
22065;DHT22;11197;53.110;8.468;2023-03-01T06:32:07;-1.50;99.90
22065;DHT22;11197;53.110;8.468;2023-03-01T06:34:34;-1.50;99.90
22065;DHT22;11197;53.110;8.468;2023-03-01T06:36:59;-1.50;99.90
22065;DHT22;11197;53.110;8.468;2023-03-01T06:39:28;-1.50;99.90
22065;DHT22;11197;53.110;8.468;2023-03-01T06:41:54;-1.60;99.90
22065;DHT22;11197;53.110;8.468;2023-03-01T06:44:19;-1.50;99.90
22065;DHT22;11197;53.110;8.468;2023-03-01T06:46:45;-1.60;99.90
22065;DHT22;11197;53.110;8.468;2023-03-01T06:49:11;-1.50;99.90
22065;DHT22;11197;53.110;8.468;2023-03-01T06:51:37;-1.50;99.90
22065;DHT22;11197;53.110;8.468;2023-03-01T06:54:04;-1.50;99.90
22065;DHT22;11197;53.110;8.468;2023-03-01T06:56:31;-1.50;99.90
22065;DHT22;11197;53.110;8.468;2023-03-01T06:58:58;-1.50;99.90
22065;DHT22;11197;53.110;8.468;2023-03-01T07:01:24;-1.50;99.90
22065;DHT22;11197;53.110;8.468;2023-03-01T07:03:50;-1.50;99.90
22065;DHT22;11197;53.110;8.468;2023-03-01T07:06:16;-1.50;99.90
22065;DHT22;11197;53.110;8.468;2023-03-01T07:08:43;-1.50;99.90
22065;DHT22;11197;53.110;8.468;2023-03-01T07:11:09;-1.50;99.90
22065;DHT22;11197;53.110;8.468;2023-03-01T07:13:38;-1.50;99.90
22065;DHT22;11197;53.110;8.468;2023-03-01T07:16:04;-1.50;99.90
22065;DHT22;11197;53.110;8.468;2023-03-01T07:18:29;-1.50;99.90
22065;DHT22;11197;53.110;8.468;2023-03-01T07:20:56;-1.50;99.90
22065;DHT22;11197;53.110;8.468;2023-03-01T07:23:24;-1.50;99.90
22065;DHT22;11197;53.110;8.468;2023-03-01T07:25:56;-1.50;99.90
22065;DHT22;11197;53.110;8.468;2023-03-01T07:28:23;-1.50;99.90
22065;DHT22;11197;53.110;8.468;2023-03-01T07:30:49;-1.50;99.90
22065;DHT22;11197;53.110;8.468;2023-03-01T07:33:17;-1.50;99.90
22065;DHT22;11197;53.110;8.468;2023-03-01T07:35:42;-1.50;99.90
22065;DHT22;11197;53.110;8.468;2023-03-01T07:38:08;-1.40;99.90
22065;DHT22;11197;53.110;8.468;2023-03-01T07:40:35;-1.40;99.90
22065;DHT22;11197;53.110;8.468;2023-03-01T07:43:04;-1.30;99.90
22065;DHT22;11197;53.110;8.468;2023-03-01T07:45:30;-1.30;99.90
22065;DHT22;11197;53.110;8.468;2023-03-01T07:47:56;-1.30;99.90
22065;DHT22;11197;53.110;8.468;2023-03-01T07:50:22;-1.20;99.90
22065;DHT22;11197;53.110;8.468;2023-03-01T07:52:49;-1.20;99.90
22065;DHT22;11197;53.110;8.468;2023-03-01T07:55:16;-1.10;99.90
22065;DHT22;11197;53.110;8.468;2023-03-01T07:57:42;-1.10;99.90
22065;DHT22;11197;53.110;8.468;2023-03-01T08:00:11;-1.00;99.90
22065;DHT22;11197;53.110;8.468;2023-03-01T08:02:40;-1.00;99.90
22065;DHT22;11197;53.110;8.468;2023-03-01T08:05:08;-1.00;99.90
22065;DHT22;11197;53.110;8.468;2023-03-01T08:07:35;-0.90;99.90
22065;DHT22;11197;53.110;8.468;2023-03-01T08:10:01;-0.90;99.90
22065;DHT22;11197;53.110;8.468;2023-03-01T08:12:27;-0.80;99.90
22065;DHT22;11197;53.110;8.468;2023-03-01T08:14:53;-0.80;99.90
22065;DHT22;11197;53.110;8.468;2023-03-01T08:17:22;-0.80;99.90
22065;DHT22;11197;53.110;8.468;2023-03-01T08:19:48;-0.80;99.90
22065;DHT22;11197;53.110;8.468;2023-03-01T08:22:14;-0.70;99.90
22065;DHT22;11197;53.110;8.468;2023-03-01T08:24:40;-0.70;99.90
22065;DHT22;11197;53.110;8.468;2023-03-01T08:27:06;-0.70;99.90
22065;DHT22;11197;53.110;8.468;2023-03-01T08:29:32;-0.60;99.90
22065;DHT22;11197;53.110;8.468;2023-03-01T08:31:58;-0.50;99.90
22065;DHT22;11197;53.110;8.468;2023-03-01T08:34:24;-0.50;99.90
22065;DHT22;11197;53.110;8.468;2023-03-01T08:36:50;-0.50;99.90
22065;DHT22;11197;53.110;8.468;2023-03-01T08:39:18;-0.40;99.90
22065;DHT22;11197;53.110;8.468;2023-03-01T08:41:45;-0.40;99.90
22065;DHT22;11197;53.110;8.468;2023-03-01T08:44:13;-0.40;99.90
22065;DHT22;11197;53.110;8.468;2023-03-01T08:46:44;-0.30;99.90
22065;DHT22;11197;53.110;8.468;2023-03-01T08:49:17;-0.30;99.90
22065;DHT22;11197;53.110;8.468;2023-03-01T08:51:44;-0.20;99.90
22065;DHT22;11197;53.110;8.468;2023-03-01T08:54:13;-0.20;99.90
22065;DHT22;11197;53.110;8.468;2023-03-01T08:56:40;-0.10;99.90
22065;DHT22;11197;53.110;8.468;2023-03-01T08:59:07;-0.10;99.90
22065;DHT22;11197;53.110;8.468;2023-03-01T09:01:33;-0.10;99.90
22065;DHT22;11197;53.110;8.468;2023-03-01T09:03:59;0.00;99.90
22065;DHT22;11197;53.110;8.468;2023-03-01T09:06:24;0.00;99.90
22065;DHT22;11197;53.110;8.468;2023-03-01T09:08:51;0.00;99.90
22065;DHT22;11197;53.110;8.468;2023-03-01T09:11:19;0.10;99.90
22065;DHT22;11197;53.110;8.468;2023-03-01T09:13:46;0.10;99.90
22065;DHT22;11197;53.110;8.468;2023-03-01T09:16:15;0.20;99.90
22065;DHT22;11197;53.110;8.468;2023-03-01T09:18:43;0.20;99.90
22065;DHT22;11197;53.110;8.468;2023-03-01T09:21:14;0.20;99.90
22065;DHT22;11197;53.110;8.468;2023-03-01T09:23:42;0.30;99.90
22065;DHT22;11197;53.110;8.468;2023-03-01T09:26:12;0.40;99.90
22065;DHT22;11197;53.110;8.468;2023-03-01T09:28:38;0.40;99.90
22065;DHT22;11197;53.110;8.468;2023-03-01T09:31:04;0.50;99.90
22065;DHT22;11197;53.110;8.468;2023-03-01T09:33:32;0.50;99.90
22065;DHT22;11197;53.110;8.468;2023-03-01T09:36:03;0.60;99.90
22065;DHT22;11197;53.110;8.468;2023-03-01T09:38:29;0.70;99.90
22065;DHT22;11197;53.110;8.468;2023-03-01T09:40:55;0.80;99.90
22065;DHT22;11197;53.110;8.468;2023-03-01T09:46:11;0.90;99.90
22065;DHT22;11197;53.110;8.468;2023-03-01T09:48:43;1.00;99.90
22065;DHT22;11197;53.110;8.468;2023-03-01T09:51:18;1.10;99.90
22065;DHT22;11197;53.110;8.468;2023-03-01T09:53:45;1.10;99.90
22065;DHT22;11197;53.110;8.468;2023-03-01T09:56:44;1.20;99.90
22065;DHT22;11197;53.110;8.468;2023-03-01T09:59:21;1.30;99.90
22065;DHT22;11197;53.110;8.468;2023-03-01T10:04:50;1.50;99.90
22065;DHT22;11197;53.110;8.468;2023-03-01T10:10:01;1.60;99.90
22065;DHT22;11197;53.110;8.468;2023-03-01T10:12:37;1.70;99.90
22065;DHT22;11197;53.110;8.468;2023-03-01T10:15:14;1.80;99.90
22065;DHT22;11197;53.110;8.468;2023-03-01T10:17:55;1.80;99.90
22065;DHT22;11197;53.110;8.468;2023-03-01T10:20:24;1.90;99.90
22065;DHT22;11197;53.110;8.468;2023-03-01T10:22:51;2.00;99.90
22065;DHT22;11197;53.110;8.468;2023-03-01T10:27:54;2.10;99.90
22065;DHT22;11197;53.110;8.468;2023-03-01T10:30:35;2.20;99.90
22065;DHT22;11197;53.110;8.468;2023-03-01T10:33:27;2.20;99.90
22065;DHT22;11197;53.110;8.468;2023-03-01T10:35:51;2.30;99.90
22065;DHT22;11197;53.110;8.468;2023-03-01T10:38:18;2.40;99.90
22065;DHT22;11197;53.110;8.468;2023-03-01T10:43:49;2.60;99.90
22065;DHT22;11197;53.110;8.468;2023-03-01T10:46:33;2.60;99.90
22065;DHT22;11197;53.110;8.468;2023-03-01T10:51:43;2.60;99.90
22065;DHT22;11197;53.110;8.468;2023-03-01T10:54:29;2.70;99.90
22065;DHT22;11197;53.110;8.468;2023-03-01T10:57:00;2.80;99.90
22065;DHT22;11197;53.110;8.468;2023-03-01T11:02:22;3.00;99.90
22065;DHT22;11197;53.110;8.468;2023-03-01T11:07:52;3.30;99.90
22065;DHT22;11197;53.110;8.468;2023-03-01T11:12:48;3.30;99.90
22065;DHT22;11197;53.110;8.468;2023-03-01T11:15:26;3.30;99.90
22065;DHT22;11197;53.110;8.468;2023-03-01T11:17:53;3.40;99.90
22065;DHT22;11197;53.110;8.468;2023-03-01T11:23:05;3.50;99.90
22065;DHT22;11197;53.110;8.468;2023-03-01T11:25:37;3.60;99.90
22065;DHT22;11197;53.110;8.468;2023-03-01T11:28:06;3.60;99.90
22065;DHT22;11197;53.110;8.468;2023-03-01T11:31:02;3.70;99.90
22065;DHT22;11197;53.110;8.468;2023-03-01T11:33:48;3.80;99.90
22065;DHT22;11197;53.110;8.468;2023-03-01T11:39:31;3.90;99.90
22065;DHT22;11197;53.110;8.468;2023-03-01T11:42:15;4.00;99.90
22065;DHT22;11197;53.110;8.468;2023-03-01T11:44:46;4.10;99.90
22065;DHT22;11197;53.110;8.468;2023-03-01T11:47:22;4.10;99.90
22065;DHT22;11197;53.110;8.468;2023-03-01T11:55:56;4.40;99.90
22065;DHT22;11197;53.110;8.468;2023-03-01T12:09:14;4.70;99.90
22065;DHT22;11197;53.110;8.468;2023-03-01T12:17:33;4.90;99.90
22065;DHT22;11197;53.110;8.468;2023-03-01T12:23:27;5.00;99.90
22065;DHT22;11197;53.110;8.468;2023-03-01T12:34:04;5.00;99.90
22065;DHT22;11197;53.110;8.468;2023-03-01T12:45:38;5.30;99.90
22065;DHT22;11197;53.110;8.468;2023-03-01T12:51:23;5.30;99.90
22065;DHT22;11197;53.110;8.468;2023-03-01T12:53:51;5.30;99.90
22065;DHT22;11197;53.110;8.468;2023-03-01T12:56:24;5.30;99.90
22065;DHT22;11197;53.110;8.468;2023-03-01T12:58:59;5.30;99.90
22065;DHT22;11197;53.110;8.468;2023-03-01T13:02:07;5.40;99.90
22065;DHT22;11197;53.110;8.468;2023-03-01T13:17:51;5.80;99.90
22065;DHT22;11197;53.110;8.468;2023-03-01T13:20:25;5.90;99.90
22065;DHT22;11197;53.110;8.468;2023-03-01T13:25:29;5.90;99.90
22065;DHT22;11197;53.110;8.468;2023-03-01T13:31:00;5.90;99.90
22065;DHT22;11197;53.110;8.468;2023-03-01T13:35:57;5.90;99.90
22065;DHT22;11197;53.110;8.468;2023-03-01T13:49:42;6.00;99.90
22065;DHT22;11197;53.110;8.468;2023-03-01T13:52:37;6.00;99.90
22065;DHT22;11197;53.110;8.468;2023-03-01T13:57:58;6.00;99.90
22065;DHT22;11197;53.110;8.468;2023-03-01T14:00:31;6.00;99.90
22065;DHT22;11197;53.110;8.468;2023-03-01T14:05:30;6.00;99.90
22065;DHT22;11197;53.110;8.468;2023-03-01T14:07:56;6.00;99.90
22065;DHT22;11197;53.110;8.468;2023-03-01T14:10:27;6.10;99.90
22065;DHT22;11197;53.110;8.468;2023-03-01T14:13:09;6.20;99.90
22065;DHT22;11197;53.110;8.468;2023-03-01T14:15:50;6.20;99.90
22065;DHT22;11197;53.110;8.468;2023-03-01T14:18:33;6.30;99.90
22065;DHT22;11197;53.110;8.468;2023-03-01T14:21:01;6.30;99.90
22065;DHT22;11197;53.110;8.468;2023-03-01T14:23:32;6.30;99.90
22065;DHT22;11197;53.110;8.468;2023-03-01T14:26:00;6.40;99.90
22065;DHT22;11197;53.110;8.468;2023-03-01T14:28:31;6.30;99.90
22065;DHT22;11197;53.110;8.468;2023-03-01T14:31:01;6.30;99.90
22065;DHT22;11197;53.110;8.468;2023-03-01T14:33:33;6.40;99.90
22065;DHT22;11197;53.110;8.468;2023-03-01T14:38:42;6.40;99.90
22065;DHT22;11197;53.110;8.468;2023-03-01T14:41:23;6.50;99.90
22065;DHT22;11197;53.110;8.468;2023-03-01T14:44:07;6.50;99.90
22065;DHT22;11197;53.110;8.468;2023-03-01T14:46:40;6.50;99.90
22065;DHT22;11197;53.110;8.468;2023-03-01T14:51:37;6.60;99.90
22065;DHT22;11197;53.110;8.468;2023-03-01T14:54:10;6.70;99.90
22065;DHT22;11197;53.110;8.468;2023-03-01T14:56:45;6.60;99.90
22065;DHT22;11197;53.110;8.468;2023-03-01T14:59:11;6.70;99.90
22065;DHT22;11197;53.110;8.468;2023-03-01T15:01:40;6.70;99.90
22065;DHT22;11197;53.110;8.468;2023-03-01T15:04:11;6.70;99.90
22065;DHT22;11197;53.110;8.468;2023-03-01T15:06:38;6.70;99.90
22065;DHT22;11197;53.110;8.468;2023-03-01T15:09:04;6.80;99.90
22065;DHT22;11197;53.110;8.468;2023-03-01T15:11:32;6.80;99.90
22065;DHT22;11197;53.110;8.468;2023-03-01T15:13:59;6.80;99.90
22065;DHT22;11197;53.110;8.468;2023-03-01T15:16:28;6.80;99.90
22065;DHT22;11197;53.110;8.468;2023-03-01T15:18:57;6.80;99.90
22065;DHT22;11197;53.110;8.468;2023-03-01T15:21:34;6.80;99.90
22065;DHT22;11197;53.110;8.468;2023-03-01T15:26:58;6.80;99.90
22065;DHT22;11197;53.110;8.468;2023-03-01T15:29:34;6.90;99.90
22065;DHT22;11197;53.110;8.468;2023-03-01T15:32:29;6.90;99.90
22065;DHT22;11197;53.110;8.468;2023-03-01T15:34:57;6.90;99.90
22065;DHT22;11197;53.110;8.468;2023-03-01T15:37:44;6.90;99.90
22065;DHT22;11197;53.110;8.468;2023-03-01T15:40:27;7.00;99.90
22065;DHT22;11197;53.110;8.468;2023-03-01T15:43:00;7.00;99.90
22065;DHT22;11197;53.110;8.468;2023-03-01T15:45:28;7.00;99.90
22065;DHT22;11197;53.110;8.468;2023-03-01T15:47:59;7.00;99.90
22065;DHT22;11197;53.110;8.468;2023-03-01T15:50:31;7.00;99.90
22065;DHT22;11197;53.110;8.468;2023-03-01T15:53:03;7.10;99.90
22065;DHT22;11197;53.110;8.468;2023-03-01T15:55:32;7.10;99.90
22065;DHT22;11197;53.110;8.468;2023-03-01T16:00:32;7.00;99.90
22065;DHT22;11197;53.110;8.468;2023-03-01T16:02:58;7.00;99.90
22065;DHT22;11197;53.110;8.468;2023-03-01T16:05:29;7.00;99.90
22065;DHT22;11197;53.110;8.468;2023-03-01T16:07:56;7.00;99.90
22065;DHT22;11197;53.110;8.468;2023-03-01T16:10:23;7.00;99.90
22065;DHT22;11197;53.110;8.468;2023-03-01T16:12:50;7.00;99.90
22065;DHT22;11197;53.110;8.468;2023-03-01T16:17:46;7.00;99.90
22065;DHT22;11197;53.110;8.468;2023-03-01T16:20:22;7.00;99.90
22065;DHT22;11197;53.110;8.468;2023-03-01T16:22:47;7.00;99.90
22065;DHT22;11197;53.110;8.468;2023-03-01T16:25:16;6.90;99.90
22065;DHT22;11197;53.110;8.468;2023-03-01T16:27:43;6.90;99.90
22065;DHT22;11197;53.110;8.468;2023-03-01T16:30:10;6.90;99.90
22065;DHT22;11197;53.110;8.468;2023-03-01T16:32:41;6.90;99.90
22065;DHT22;11197;53.110;8.468;2023-03-01T16:35:08;6.90;99.90
22065;DHT22;11197;53.110;8.468;2023-03-01T16:37:35;6.80;99.90
22065;DHT22;11197;53.110;8.468;2023-03-01T16:40:03;6.80;99.90
22065;DHT22;11197;53.110;8.468;2023-03-01T16:42:38;6.70;99.90
22065;DHT22;11197;53.110;8.468;2023-03-01T16:45:07;6.70;99.90
22065;DHT22;11197;53.110;8.468;2023-03-01T16:47:33;6.70;99.90
22065;DHT22;11197;53.110;8.468;2023-03-01T16:49:59;6.70;99.90
22065;DHT22;11197;53.110;8.468;2023-03-01T16:52:25;6.60;99.90
22065;DHT22;11197;53.110;8.468;2023-03-01T16:54:51;6.60;99.90
22065;DHT22;11197;53.110;8.468;2023-03-01T16:57:17;6.50;99.90
22065;DHT22;11197;53.110;8.468;2023-03-01T16:59:43;6.50;99.90
22065;DHT22;11197;53.110;8.468;2023-03-01T17:02:13;6.50;99.90
22065;DHT22;11197;53.110;8.468;2023-03-01T17:04:40;6.50;99.90
22065;DHT22;11197;53.110;8.468;2023-03-01T17:07:06;6.40;99.90
22065;DHT22;11197;53.110;8.468;2023-03-01T17:09:36;6.40;99.90
22065;DHT22;11197;53.110;8.468;2023-03-01T17:12:03;6.60;99.90
22065;DHT22;11197;53.110;8.468;2023-03-01T17:14:29;7.80;99.90
22065;DHT22;11197;53.110;8.468;2023-03-01T17:16:56;8.80;99.90
22065;DHT22;11197;53.110;8.468;2023-03-01T17:19:21;9.60;99.90
22065;DHT22;11197;53.110;8.468;2023-03-01T17:21:47;9.90;99.90
22065;DHT22;11197;53.110;8.468;2023-03-01T17:24:13;9.80;99.90
22065;DHT22;11197;53.110;8.468;2023-03-01T17:26:39;9.50;99.90
22065;DHT22;11197;53.110;8.468;2023-03-01T17:29:05;9.10;99.90
22065;DHT22;11197;53.110;8.468;2023-03-01T17:31:32;8.70;99.90
22065;DHT22;11197;53.110;8.468;2023-03-01T17:33:59;8.40;99.90
22065;DHT22;11197;53.110;8.468;2023-03-01T17:36:26;8.10;99.90
22065;DHT22;11197;53.110;8.468;2023-03-01T17:38:52;7.80;99.90
22065;DHT22;11197;53.110;8.468;2023-03-01T17:41:18;7.60;99.90
22065;DHT22;11197;53.110;8.468;2023-03-01T17:43:46;7.30;99.90
22065;DHT22;11197;53.110;8.468;2023-03-01T17:46:12;7.10;99.90
22065;DHT22;11197;53.110;8.468;2023-03-01T17:48:39;6.90;99.90
22065;DHT22;11197;53.110;8.468;2023-03-01T17:51:09;6.70;99.90
22065;DHT22;11197;53.110;8.468;2023-03-01T17:53:36;6.60;99.90
22065;DHT22;11197;53.110;8.468;2023-03-01T17:56:04;6.50;99.90
22065;DHT22;11197;53.110;8.468;2023-03-01T17:58:31;6.40;99.90
22065;DHT22;11197;53.110;8.468;2023-03-01T18:01:15;6.30;99.90
22065;DHT22;11197;53.110;8.468;2023-03-01T18:03:42;6.20;99.90
22065;DHT22;11197;53.110;8.468;2023-03-01T18:06:11;6.10;99.90
22065;DHT22;11197;53.110;8.468;2023-03-01T18:08:37;6.10;99.90
22065;DHT22;11197;53.110;8.468;2023-03-01T18:11:03;6.00;99.90
22065;DHT22;11197;53.110;8.468;2023-03-01T18:13:29;6.00;99.90
22065;DHT22;11197;53.110;8.468;2023-03-01T18:15:55;5.90;99.90
22065;DHT22;11197;53.110;8.468;2023-03-01T18:18:29;5.90;99.90
22065;DHT22;11197;53.110;8.468;2023-03-01T18:20:59;5.90;99.90